Rechercher aéroport 
image banner adimage banner adimage banner ad
image banner ad

7CA4 - Desert Regional Medical Center

Situé à Palm Springs, United States

ICAO - 7CA4, IATA -

Données fournies par Airmate  

Information générale

Coordonnées: N33°50'18" W116°32'38"
Élévation : 560 feet MSL.
 
Voir autres Aéroports à California

Données opérationnelles

Special qualification required
Heure actuelle UTC:
Heure actuelle locale:
Météo à : KPSP - Palm Springs Intl ( 4 km )
METAR: KPSP 300053Z AUTO 30015G21KT 10SM CLR 44/15 A2969 RMK AO2 SLP047 T04390150
TAF: KPSP 292325Z 3000/3024 33012G20KT P6SM FEW200 FM300600 33006KT P6SM SCT200
Voir NOTAMs / SUP AIP / TFR affectant cet aéroport [VIEW]
Fréquences de communication: [VIEW]

Pistes:

Coordonnées de l'aéroport

Adresse: Palm Springs United States

Vue satellite de 7CA4